sensor_id;sensor_type;location;lat;lon;timestamp;pressure;altitude;pressure_sealevel;temperature;humidity
46944;BME280;32678;43.852;25.952;2024-03-25T00:04:50;99803.59;;;11.21;82.64
46944;BME280;32678;43.852;25.952;2024-03-25T00:09:48;99792.13;;;11.23;82.26
46944;BME280;32678;43.852;25.952;2024-03-25T00:14:45;99787.91;;;11.37;81.97
46944;BME280;32678;43.852;25.952;2024-03-25T00:19:41;99792.69;;;11.46;82.90
46944;BME280;32678;43.852;25.952;2024-03-25T00:24:38;99782.50;;;11.57;82.17
46944;BME280;32678;43.852;25.952;2024-03-25T00:29:36;99774.50;;;11.43;80.66
46944;BME280;32678;43.852;25.952;2024-03-25T00:34:33;99780.06;;;11.69;81.19
46944;BME280;32678;43.852;25.952;2024-03-25T00:39:30;99780.53;;;11.60;79.57
46944;BME280;32678;43.852;25.952;2024-03-25T00:44:28;99785.91;;;10.90;81.60
46944;BME280;32678;43.852;25.952;2024-03-25T00:49:26;99783.88;;;10.61;85.36
46944;BME280;32678;43.852;25.952;2024-03-25T00:54:23;99777.81;;;10.95;84.28
46944;BME280;32678;43.852;25.952;2024-03-25T00:59:20;99775.53;;;10.89;84.23
46944;BME280;32678;43.852;25.952;2024-03-25T01:04:17;99781.63;;;10.70;84.20
46944;BME280;32678;43.852;25.952;2024-03-25T01:09:14;99769.47;;;10.33;86.20
46944;BME280;32678;43.852;25.952;2024-03-25T01:14:12;99770.34;;;10.51;85.90
46944;BME280;32678;43.852;25.952;2024-03-25T01:19:09;99769.47;;;10.69;85.92
46944;BME280;32678;43.852;25.952;2024-03-25T01:24:05;99759.91;;;10.14;86.92
46944;BME280;32678;43.852;25.952;2024-03-25T01:29:03;99769.88;;;10.43;85.36
46944;BME280;32678;43.852;25.952;2024-03-25T01:34:00;99764.00;;;10.38;85.99
46944;BME280;32678;43.852;25.952;2024-03-25T01:38:57;99769.75;;;10.27;86.06
46944;BME280;32678;43.852;25.952;2024-03-25T01:43:53;99773.16;;;10.29;87.50
46944;BME280;32678;43.852;25.952;2024-03-25T01:48:51;99773.44;;;10.05;88.21
46944;BME280;32678;43.852;25.952;2024-03-25T01:53:49;99774.06;;;9.91;87.53
46944;BME280;32678;43.852;25.952;2024-03-25T01:58:46;99787.34;;;10.25;86.37
46944;BME280;32678;43.852;25.952;2024-03-25T02:03:43;99799.66;;;9.66;87.34
46944;BME280;32678;43.852;25.952;2024-03-25T02:08:41;99802.34;;;9.83;86.58
46944;BME280;32678;43.852;25.952;2024-03-25T02:13:39;99808.88;;;9.34;89.36
46944;BME280;32678;43.852;25.952;2024-03-25T02:18:36;99828.34;;;9.28;88.56
46944;BME280;32678;43.852;25.952;2024-03-25T02:23:33;99830.75;;;9.33;89.09
46944;BME280;32678;43.852;25.952;2024-03-25T02:28:31;99819.03;;;9.21;90.25
46944;BME280;32678;43.852;25.952;2024-03-25T02:33:28;99816.88;;;9.31;90.02
46944;BME280;32678;43.852;25.952;2024-03-25T02:38:25;99822.19;;;9.68;88.70
46944;BME280;32678;43.852;25.952;2024-03-25T02:43:22;99831.25;;;9.21;90.87
46944;BME280;32678;43.852;25.952;2024-03-25T02:48:19;99836.69;;;8.94;91.80
46944;BME280;32678;43.852;25.952;2024-03-25T02:53:16;99836.44;;;8.58;93.87
46944;BME280;32678;43.852;25.952;2024-03-25T02:58:13;99819.88;;;8.80;93.89
46944;BME280;32678;43.852;25.952;2024-03-25T03:03:10;99817.06;;;9.06;91.55
46944;BME280;32678;43.852;25.952;2024-03-25T03:08:08;99819.38;;;9.13;91.30
46944;BME280;32678;43.852;25.952;2024-03-25T03:13:05;99808.44;;;9.24;91.54
46944;BME280;32678;43.852;25.952;2024-03-25T03:18:02;99801.97;;;9.33;90.77
46944;BME280;32678;43.852;25.952;2024-03-25T03:22:59;99792.69;;;10.22;89.33
46944;BME280;32678;43.852;25.952;2024-03-25T03:27:56;99796.72;;;10.48;86.34
46944;BME280;32678;43.852;25.952;2024-03-25T03:32:53;99798.13;;;9.99;85.76
46944;BME280;32678;43.852;25.952;2024-03-25T03:37:50;99812.78;;;9.64;87.73
46944;BME280;32678;43.852;25.952;2024-03-25T03:42:47;99826.69;;;9.26;89.22
46944;BME280;32678;43.852;25.952;2024-03-25T03:47:44;99817.06;;;8.64;93.48
46944;BME280;32678;43.852;25.952;2024-03-25T03:52:41;99823.72;;;8.71;94.00
46944;BME280;32678;43.852;25.952;2024-03-25T03:57:38;99819.09;;;8.56;93.84
46944;BME280;32678;43.852;25.952;2024-03-25T04:02:35;99819.16;;;8.76;94.12
46944;BME280;32678;43.852;25.952;2024-03-25T04:07:33;99824.22;;;9.01;93.30
46944;BME280;32678;43.852;25.952;2024-03-25T04:12:29;99826.88;;;9.21;91.83
46944;BME280;32678;43.852;25.952;2024-03-25T04:17:26;99830.59;;;9.16;90.52
46944;BME280;32678;43.852;25.952;2024-03-25T04:22:23;99826.94;;;9.60;90.14
46944;BME280;32678;43.852;25.952;2024-03-25T04:27:20;99822.34;;;8.84;88.81
46944;BME280;32678;43.852;25.952;2024-03-25T04:32:20;99829.69;;;8.53;88.58
46944;BME280;32678;43.852;25.952;2024-03-25T04:37:17;99829.53;;;7.88;91.51
46944;BME280;32678;43.852;25.952;2024-03-25T04:42:14;99803.81;;;8.23;91.37
46944;BME280;32678;43.852;25.952;2024-03-25T04:47:11;99816.94;;;7.99;92.91
46944;BME280;32678;43.852;25.952;2024-03-25T04:52:08;99822.47;;;8.36;91.78
46944;BME280;32678;43.852;25.952;2024-03-25T04:57:05;99829.75;;;9.15;89.95
46944;BME280;32678;43.852;25.952;2024-03-25T05:02:02;99826.31;;;9.74;86.72
46944;BME280;32678;43.852;25.952;2024-03-25T05:07:00;99840.72;;;10.23;84.71
46944;BME280;32678;43.852;25.952;2024-03-25T05:11:57;99852.75;;;10.64;81.29
46944;BME280;32678;43.852;25.952;2024-03-25T05:16:54;99863.66;;;10.91;76.75
46944;BME280;32678;43.852;25.952;2024-03-25T05:21:51;99871.22;;;10.24;73.67
46944;BME280;32678;43.852;25.952;2024-03-25T05:26:49;99868.56;;;10.44;73.49
46944;BME280;32678;43.852;25.952;2024-03-25T05:31:55;99874.91;;;10.57;72.56
46944;BME280;32678;43.852;25.952;2024-03-25T05:36:52;99873.69;;;10.27;73.89
46944;BME280;32678;43.852;25.952;2024-03-25T05:41:49;99872.03;;;10.26;73.39
46944;BME280;32678;43.852;25.952;2024-03-25T05:46:46;99877.25;;;10.26;74.68
46944;BME280;32678;43.852;25.952;2024-03-25T05:51:43;99883.47;;;10.61;74.76
46944;BME280;32678;43.852;25.952;2024-03-25T05:56:40;99901.38;;;9.53;76.20
46944;BME280;32678;43.852;25.952;2024-03-25T06:01:37;99905.19;;;9.66;77.72
46944;BME280;32678;43.852;25.952;2024-03-25T06:06:36;99899.81;;;9.49;78.51
46944;BME280;32678;43.852;25.952;2024-03-25T06:11:33;99907.19;;;9.39;77.79
46944;BME280;32678;43.852;25.952;2024-03-25T06:16:30;99922.13;;;9.37;77.92
46944;BME280;32678;43.852;25.952;2024-03-25T06:21:28;99940.41;;;8.72;80.13
46944;BME280;32678;43.852;25.952;2024-03-25T06:26:25;99950.66;;;8.55;81.08
46944;BME280;32678;43.852;25.952;2024-03-25T06:31:22;99933.19;;;8.79;79.97
46944;BME280;32678;43.852;25.952;2024-03-25T06:36:37;99955.06;;;8.53;80.29
46944;BME280;32678;43.852;25.952;2024-03-25T06:41:34;99969.25;;;8.46;81.65
46944;BME280;32678;43.852;25.952;2024-03-25T06:46:31;99969.66;;;8.82;80.19
46944;BME280;32678;43.852;25.952;2024-03-25T06:51:31;99977.44;;;8.37;82.38
46944;BME280;32678;43.852;25.952;2024-03-25T06:56:29;99993.38;;;8.29;81.22
46944;BME280;32678;43.852;25.952;2024-03-25T07:01:26;99991.09;;;8.20;81.39
46944;BME280;32678;43.852;25.952;2024-03-25T07:06:23;99993.03;;;8.40;79.51
46944;BME280;32678;43.852;25.952;2024-03-25T07:11:21;99993.22;;;8.09;81.75
46944;BME280;32678;43.852;25.952;2024-03-25T07:16:19;99999.03;;;8.42;82.48
46944;BME280;32678;43.852;25.952;2024-03-25T07:21:16;100011.81;;;8.73;80.36
46944;BME280;32678;43.852;25.952;2024-03-25T07:26:13;100016.53;;;8.63;78.38
46944;BME280;32678;43.852;25.952;2024-03-25T07:31:09;100026.25;;;8.59;79.11
46944;BME280;32678;43.852;25.952;2024-03-25T07:36:10;100043.66;;;8.09;79.17
46944;BME280;32678;43.852;25.952;2024-03-25T07:41:07;100047.38;;;8.02;80.22
46944;BME280;32678;43.852;25.952;2024-03-25T07:46:05;100053.22;;;7.84;81.92
46944;BME280;32678;43.852;25.952;2024-03-25T07:51:02;100051.81;;;8.00;81.56
46944;BME280;32678;43.852;25.952;2024-03-25T07:55:59;100059.88;;;7.93;81.23
46944;BME280;32678;43.852;25.952;2024-03-25T08:00:57;100075.31;;;8.00;80.84
46944;BME280;32678;43.852;25.952;2024-03-25T08:05:53;100091.31;;;7.90;80.40
46944;BME280;32678;43.852;25.952;2024-03-25T08:10:50;100093.28;;;8.09;81.13
46944;BME280;32678;43.852;25.952;2024-03-25T08:15:49;100091.41;;;8.39;81.76
46944;BME280;32678;43.852;25.952;2024-03-25T08:20:48;100095.41;;;8.74;79.47
46944;BME280;32678;43.852;25.952;2024-03-25T08:25:50;100117.56;;;8.87;76.34
46944;BME280;32678;43.852;25.952;2024-03-25T08:30:47;100119.25;;;9.13;77.71
46944;BME280;32678;43.852;25.952;2024-03-25T08:35:44;100112.34;;;9.34;76.34
46944;BME280;32678;43.852;25.952;2024-03-25T08:40:41;100129.38;;;9.44;75.89
46944;BME280;32678;43.852;25.952;2024-03-25T08:45:37;100130.81;;;9.74;75.20
46944;BME280;32678;43.852;25.952;2024-03-25T08:50:34;100139.22;;;10.04;74.76
46944;BME280;32678;43.852;25.952;2024-03-25T08:55:31;100139.66;;;10.15;74.96
46944;BME280;32678;43.852;25.952;2024-03-25T09:00:28;100137.72;;;10.20;75.00
46944;BME280;32678;43.852;25.952;2024-03-25T09:05:25;100144.69;;;10.41;73.23
46944;BME280;32678;43.852;25.952;2024-03-25T09:10:21;100151.00;;;10.58;73.19
46944;BME280;32678;43.852;25.952;2024-03-25T09:15:37;100157.78;;;10.62;73.46
46944;BME280;32678;43.852;25.952;2024-03-25T09:20:34;100163.50;;;10.51;73.66
46944;BME280;32678;43.852;25.952;2024-03-25T09:25:31;100159.03;;;10.53;73.94
46944;BME280;32678;43.852;25.952;2024-03-25T09:30:27;100159.84;;;10.55;73.48
46944;BME280;32678;43.852;25.952;2024-03-25T09:35:25;100169.59;;;10.52;74.67
46944;BME280;32678;43.852;25.952;2024-03-25T09:40:22;100163.84;;;10.64;74.73
46944;BME280;32678;43.852;25.952;2024-03-25T09:45:18;100165.53;;;10.85;73.61
46944;BME280;32678;43.852;25.952;2024-03-25T09:50:16;100171.38;;;10.92;72.09
46944;BME280;32678;43.852;25.952;2024-03-25T09:55:16;100182.75;;;10.91;72.21
46944;BME280;32678;43.852;25.952;2024-03-25T10:00:13;100169.81;;;10.88;72.05
46944;BME280;32678;43.852;25.952;2024-03-25T10:05:14;100172.69;;;10.81;70.97
46944;BME280;32678;43.852;25.952;2024-03-25T10:10:11;100172.66;;;10.61;73.31
46944;BME280;32678;43.852;25.952;2024-03-25T10:15:14;100166.91;;;10.73;72.72
46944;BME280;32678;43.852;25.952;2024-03-25T10:20:13;100172.16;;;10.73;73.21
46944;BME280;32678;43.852;25.952;2024-03-25T10:25:19;100172.47;;;10.86;72.64
46944;BME280;32678;43.852;25.952;2024-03-25T10:30:17;100162.97;;;9.99;74.73
46944;BME280;32678;43.852;25.952;2024-03-25T10:35:16;100159.22;;;10.28;75.08
46944;BME280;32678;43.852;25.952;2024-03-25T10:40:13;100159.47;;;10.22;76.23
46944;BME280;32678;43.852;25.952;2024-03-25T10:45:10;100166.03;;;9.67;76.50
46944;BME280;32678;43.852;25.952;2024-03-25T10:50:09;100169.16;;;9.53;78.58
46944;BME280;32678;43.852;25.952;2024-03-25T10:55:09;100170.06;;;9.06;80.80
46944;BME280;32678;43.852;25.952;2024-03-25T11:00:07;100175.75;;;8.69;83.20
46944;BME280;32678;43.852;25.952;2024-03-25T11:05:04;100178.97;;;9.00;82.51
46944;BME280;32678;43.852;25.952;2024-03-25T11:10:03;100182.34;;;8.79;83.87
46944;BME280;32678;43.852;25.952;2024-03-25T11:15:05;100176.31;;;8.77;84.79
46944;BME280;32678;43.852;25.952;2024-03-25T11:20:07;100162.91;;;8.86;84.84
46944;BME280;32678;43.852;25.952;2024-03-25T11:25:08;100169.81;;;8.89;86.04
46944;BME280;32678;43.852;25.952;2024-03-25T11:30:08;100170.22;;;8.77;86.61
46944;BME280;32678;43.852;25.952;2024-03-25T11:35:05;100158.59;;;8.85;86.05
46944;BME280;32678;43.852;25.952;2024-03-25T11:40:03;100154.44;;;9.28;84.50
46944;BME280;32678;43.852;25.952;2024-03-25T11:45:04;100150.66;;;9.35;83.21
46944;BME280;32678;43.852;25.952;2024-03-25T11:50:07;100137.34;;;9.64;82.45
46944;BME280;32678;43.852;25.952;2024-03-25T11:55:04;100123.03;;;9.94;79.90
46944;BME280;32678;43.852;25.952;2024-03-25T12:00:07;100126.81;;;10.31;78.74
46944;BME280;32678;43.852;25.952;2024-03-25T12:05:10;100117.50;;;10.44;80.85
46944;BME280;32678;43.852;25.952;2024-03-25T12:10:07;100098.09;;;10.68;79.55
46944;BME280;32678;43.852;25.952;2024-03-25T12:15:23;100097.19;;;10.29;75.09
46944;BME280;32678;43.852;25.952;2024-03-25T12:20:23;100111.31;;;10.65;75.38
46944;BME280;32678;43.852;25.952;2024-03-25T12:25:23;100107.91;;;10.83;74.77
46944;BME280;32678;43.852;25.952;2024-03-25T12:30:20;100099.59;;;10.74;76.41
46944;BME280;32678;43.852;25.952;2024-03-25T12:35:19;100087.50;;;10.90;76.02
46944;BME280;32678;43.852;25.952;2024-03-25T12:40:25;100101.69;;;11.05;75.89
46944;BME280;32678;43.852;25.952;2024-03-25T12:45:23;100100.44;;;11.51;73.10
46944;BME280;32678;43.852;25.952;2024-03-25T12:50:20;100116.91;;;11.17;72.00
46944;BME280;32678;43.852;25.952;2024-03-25T12:55:20;100112.75;;;10.93;73.78
46944;BME280;32678;43.852;25.952;2024-03-25T13:00:17;100112.19;;;11.05;75.31
46944;BME280;32678;43.852;25.952;2024-03-25T13:05:14;100103.63;;;11.20;74.36
46944;BME280;32678;43.852;25.952;2024-03-25T13:10:12;100112.09;;;10.88;72.37
46944;BME280;32678;43.852;25.952;2024-03-25T13:15:08;100103.75;;;10.98;74.35
46944;BME280;32678;43.852;25.952;2024-03-25T13:20:06;100111.63;;;10.98;76.12
46944;BME280;32678;43.852;25.952;2024-03-25T13:25:03;100115.97;;;11.18;72.36
46944;BME280;32678;43.852;25.952;2024-03-25T13:30:00;100115.66;;;11.05;71.90
46944;BME280;32678;43.852;25.952;2024-03-25T13:34:57;100127.84;;;10.88;75.98
46944;BME280;32678;43.852;25.952;2024-03-25T13:39:54;100124.44;;;10.65;77.59
46944;BME280;32678;43.852;25.952;2024-03-25T13:44:51;100137.75;;;10.61;77.00
46944;BME280;32678;43.852;25.952;2024-03-25T13:49:48;100118.66;;;10.37;72.58
46944;BME280;32678;43.852;25.952;2024-03-25T13:54:45;100138.03;;;10.55;73.01
46944;BME280;32678;43.852;25.952;2024-03-25T13:59:42;100114.09;;;10.62;73.62
46944;BME280;32678;43.852;25.952;2024-03-25T14:04:38;100131.38;;;10.46;72.19
46944;BME280;32678;43.852;25.952;2024-03-25T14:09:36;100129.41;;;10.51;73.38
46944;BME280;32678;43.852;25.952;2024-03-25T14:14:32;100123.25;;;10.52;73.57
46944;BME280;32678;43.852;25.952;2024-03-25T14:19:29;100115.91;;;9.76;71.43
46944;BME280;32678;43.852;25.952;2024-03-25T14:24:27;100113.47;;;9.93;70.19
46944;BME280;32678;43.852;25.952;2024-03-25T14:29:24;100112.19;;;10.04;71.49
46944;BME280;32678;43.852;25.952;2024-03-25T14:34:21;100125.31;;;10.46;70.09
46944;BME280;32678;43.852;25.952;2024-03-25T14:39:18;100128.56;;;10.30;69.07
46944;BME280;32678;43.852;25.952;2024-03-25T14:44:14;100144.69;;;10.62;69.45
46944;BME280;32678;43.852;25.952;2024-03-25T14:49:12;100144.72;;;11.01;68.28
46944;BME280;32678;43.852;25.952;2024-03-25T14:54:09;100145.75;;;11.54;68.31
46944;BME280;32678;43.852;25.952;2024-03-25T14:59:06;100149.03;;;11.97;68.09
46944;BME280;32678;43.852;25.952;2024-03-25T15:04:03;100151.97;;;12.08;65.50
46944;BME280;32678;43.852;25.952;2024-03-25T15:09:01;100151.09;;;12.26;63.02
46944;BME280;32678;43.852;25.952;2024-03-25T15:13:57;100148.50;;;12.07;62.66
46944;BME280;32678;43.852;25.952;2024-03-25T15:24:20;100127.38;;;10.98;65.43
46944;BME280;32678;43.852;25.952;2024-03-25T15:29:17;100125.69;;;11.53;62.89
46944;BME280;32678;43.852;25.952;2024-03-25T15:34:14;100131.22;;;12.21;55.68
46944;BME280;32678;43.852;25.952;2024-03-25T15:39:11;100128.03;;;11.78;54.31
46944;BME280;32678;43.852;25.952;2024-03-25T15:44:09;100126.13;;;11.44;56.44
46944;BME280;32678;43.852;25.952;2024-03-25T15:49:07;100138.03;;;11.14;57.43
46944;BME280;32678;43.852;25.952;2024-03-25T15:54:04;100136.75;;;10.83;59.52
46944;BME280;32678;43.852;25.952;2024-03-25T15:59:01;100134.94;;;10.45;63.23
46944;BME280;32678;43.852;25.952;2024-03-25T16:04:00;100131.38;;;10.26;65.62
46944;BME280;32678;43.852;25.952;2024-03-25T16:08:56;100139.69;;;10.14;67.15
46944;BME280;32678;43.852;25.952;2024-03-25T16:13:55;100147.75;;;10.09;67.84
46944;BME280;32678;43.852;25.952;2024-03-25T16:18:51;100154.50;;;10.15;67.91
46944;BME280;32678;43.852;25.952;2024-03-25T16:23:49;100159.47;;;10.00;68.44
46944;BME280;32678;43.852;25.952;2024-03-25T16:28:46;100152.66;;;10.18;67.56
46944;BME280;32678;43.852;25.952;2024-03-25T16:33:43;100158.59;;;10.22;68.63
46944;BME280;32678;43.852;25.952;2024-03-25T16:38:41;100147.22;;;10.23;68.53
46944;BME280;32678;43.852;25.952;2024-03-25T16:43:39;100151.03;;;9.92;68.91
46944;BME280;32678;43.852;25.952;2024-03-25T16:48:35;100162.84;;;10.02;68.66
46944;BME280;32678;43.852;25.952;2024-03-25T16:53:33;100158.44;;;10.47;67.37
46944;BME280;32678;43.852;25.952;2024-03-25T16:58:29;100173.03;;;10.74;64.95
46944;BME280;32678;43.852;25.952;2024-03-25T17:03:27;100179.09;;;10.54;65.74
46944;BME280;32678;43.852;25.952;2024-03-25T17:08:23;100185.78;;;10.81;64.45
46944;BME280;32678;43.852;25.952;2024-03-25T17:13:21;100192.56;;;11.26;63.32
46944;BME280;32678;43.852;25.952;2024-03-25T17:18:18;100195.75;;;11.14;63.22
46944;BME280;32678;43.852;25.952;2024-03-25T17:23:16;100206.72;;;11.42;62.80
46944;BME280;32678;43.852;25.952;2024-03-25T17:28:12;100211.75;;;11.28;64.31
46944;BME280;32678;43.852;25.952;2024-03-25T17:33:09;100212.06;;;11.20;65.70
46944;BME280;32678;43.852;25.952;2024-03-25T17:38:06;100223.41;;;11.21;66.76
46944;BME280;32678;43.852;25.952;2024-03-25T17:43:03;100232.28;;;10.98;65.28
46944;BME280;32678;43.852;25.952;2024-03-25T17:48:00;100243.94;;;10.71;64.17
46944;BME280;32678;43.852;25.952;2024-03-25T17:52:57;100259.00;;;10.66;61.70
46944;BME280;32678;43.852;25.952;2024-03-25T17:57:53;100259.31;;;10.58;61.64
46944;BME280;32678;43.852;25.952;2024-03-25T18:02:51;100277.44;;;10.64;61.45
46944;BME280;32678;43.852;25.952;2024-03-25T18:07:49;100280.41;;;10.33;64.22
46944;BME280;32678;43.852;25.952;2024-03-25T18:12:46;100290.91;;;10.10;65.03
46944;BME280;32678;43.852;25.952;2024-03-25T18:17:42;100301.47;;;10.07;65.65
46944;BME280;32678;43.852;25.952;2024-03-25T18:22:40;100313.63;;;10.10;66.90
46944;BME280;32678;43.852;25.952;2024-03-25T18:27:37;100310.03;;;10.12;66.82
46944;BME280;32678;43.852;25.952;2024-03-25T18:32:33;100320.13;;;10.23;67.15
46944;BME280;32678;43.852;25.952;2024-03-25T18:37:30;100339.81;;;10.10;68.31
46944;BME280;32678;43.852;25.952;2024-03-25T18:42:27;100341.09;;;10.23;67.14
46944;BME280;32678;43.852;25.952;2024-03-25T18:47:24;100353.59;;;10.15;67.58
46944;BME280;32678;43.852;25.952;2024-03-25T18:52:21;100352.41;;;10.00;65.84
46944;BME280;32678;43.852;25.952;2024-03-25T18:57:17;100351.53;;;9.76;65.96
46944;BME280;32678;43.852;25.952;2024-03-25T19:02:15;100372.72;;;9.44;66.55
46944;BME280;32678;43.852;25.952;2024-03-25T19:07:11;100384.25;;;9.38;64.90
46944;BME280;32678;43.852;25.952;2024-03-25T19:12:10;100384.38;;;9.60;65.18
46944;BME280;32678;43.852;25.952;2024-03-25T19:17:06;100392.78;;;9.70;64.77
46944;BME280;32678;43.852;25.952;2024-03-25T19:22:04;100405.16;;;9.89;63.86
46944;BME280;32678;43.852;25.952;2024-03-25T19:27:00;100409.22;;;9.73;64.71
46944;BME280;32678;43.852;25.952;2024-03-25T19:31:57;100417.13;;;9.47;65.59
46944;BME280;32678;43.852;25.952;2024-03-25T19:36:54;100424.09;;;9.48;65.53
46944;BME280;32678;43.852;25.952;2024-03-25T19:41:51;100424.47;;;9.36;66.39
46944;BME280;32678;43.852;25.952;2024-03-25T19:46:49;100426.34;;;9.32;66.61
46944;BME280;32678;43.852;25.952;2024-03-25T19:51:46;100421.84;;;9.36;66.50
46944;BME280;32678;43.852;25.952;2024-03-25T19:56:43;100438.38;;;9.38;66.56
46944;BME280;32678;43.852;25.952;2024-03-25T20:01:40;100450.88;;;9.02;68.21
46944;BME280;32678;43.852;25.952;2024-03-25T20:06:37;100454.28;;;9.32;67.36
46944;BME280;32678;43.852;25.952;2024-03-25T20:11:35;100461.69;;;9.44;66.71
46944;BME280;32678;43.852;25.952;2024-03-25T20:16:31;100467.34;;;9.32;67.32
46944;BME280;32678;43.852;25.952;2024-03-25T20:21:29;100483.97;;;9.29;67.31
46944;BME280;32678;43.852;25.952;2024-03-25T20:26:25;100460.94;;;9.40;66.23
46944;BME280;32678;43.852;25.952;2024-03-25T20:31:23;100496.31;;;9.26;66.96
46944;BME280;32678;43.852;25.952;2024-03-25T20:36:20;100504.16;;;9.26;66.69
46944;BME280;32678;43.852;25.952;2024-03-25T20:41:17;100500.31;;;8.80;69.42
46944;BME280;32678;43.852;25.952;2024-03-25T20:46:15;100510.31;;;8.95;69.51
46944;BME280;32678;43.852;25.952;2024-03-25T20:51:12;100519.47;;;9.10;68.73
46944;BME280;32678;43.852;25.952;2024-03-25T20:56:09;100528.16;;;8.83;69.32
46944;BME280;32678;43.852;25.952;2024-03-25T21:01:06;100528.31;;;8.77;71.11
46944;BME280;32678;43.852;25.952;2024-03-25T21:06:03;100539.31;;;8.58;71.71
46944;BME280;32678;43.852;25.952;2024-03-25T21:11:01;100545.41;;;8.59;70.55
46944;BME280;32678;43.852;25.952;2024-03-25T21:15:57;100536.03;;;8.81;69.40
46944;BME280;32678;43.852;25.952;2024-03-25T21:20:56;100563.59;;;8.62;69.67
46944;BME280;32678;43.852;25.952;2024-03-25T21:25:53;100567.94;;;8.63;70.48
46944;BME280;32678;43.852;25.952;2024-03-25T21:30:49;100562.47;;;8.70;70.23
46944;BME280;32678;43.852;25.952;2024-03-25T21:35:46;100564.56;;;8.59;71.18
46944;BME280;32678;43.852;25.952;2024-03-25T21:40:44;100568.72;;;8.65;70.93
46944;BME280;32678;43.852;25.952;2024-03-25T21:45:41;100588.84;;;8.63;71.29
46944;BME280;32678;43.852;25.952;2024-03-25T21:50:37;100585.94;;;8.74;71.37
46944;BME280;32678;43.852;25.952;2024-03-25T21:55:35;100581.16;;;8.57;71.49
46944;BME280;32678;43.852;25.952;2024-03-25T22:00:32;100591.59;;;8.58;71.83
46944;BME280;32678;43.852;25.952;2024-03-25T22:05:29;100589.53;;;8.37;72.27
46944;BME280;32678;43.852;25.952;2024-03-25T22:10:26;100586.66;;;8.46;71.45
46944;BME280;32678;43.852;25.952;2024-03-25T22:15:27;100596.50;;;8.37;72.31
46944;BME280;32678;43.852;25.952;2024-03-25T22:20:25;100600.69;;;8.08;73.96
46944;BME280;32678;43.852;25.952;2024-03-25T22:25:22;100598.00;;;8.11;74.81
46944;BME280;32678;43.852;25.952;2024-03-25T22:30:19;100600.47;;;8.17;73.89
46944;BME280;32678;43.852;25.952;2024-03-25T22:35:15;100606.28;;;8.28;72.88
46944;BME280;32678;43.852;25.952;2024-03-25T22:40:13;100612.41;;;8.26;73.08
46944;BME280;32678;43.852;25.952;2024-03-25T22:45:09;100607.16;;;8.27;73.04
46944;BME280;32678;43.852;25.952;2024-03-25T22:50:06;100619.88;;;8.07;74.05
46944;BME280;32678;43.852;25.952;2024-03-25T22:55:03;100627.84;;;7.66;75.09
46944;BME280;32678;43.852;25.952;2024-03-25T23:00:01;100634.41;;;7.45;76.26
46944;BME280;32678;43.852;25.952;2024-03-25T23:04:58;100644.94;;;7.79;75.41
46944;BME280;32678;43.852;25.952;2024-03-25T23:09:55;100646.78;;;7.74;76.21
46944;BME280;32678;43.852;25.952;2024-03-25T23:14:51;100644.78;;;7.85;76.02
46944;BME280;32678;43.852;25.952;2024-03-25T23:19:49;100643.97;;;7.83;76.32
46944;BME280;32678;43.852;25.952;2024-03-25T23:24:45;100654.94;;;7.60;77.99
46944;BME280;32678;43.852;25.952;2024-03-25T23:29:42;100657.47;;;7.63;77.80
46944;BME280;32678;43.852;25.952;2024-03-25T23:34:39;100652.72;;;7.80;76.66
46944;BME280;32678;43.852;25.952;2024-03-25T23:39:36;100656.09;;;7.47;76.92
46944;BME280;32678;43.852;25.952;2024-03-25T23:44:33;100672.44;;;7.14;78.21
46944;BME280;32678;43.852;25.952;2024-03-25T23:49:29;100678.88;;;6.97;79.58
46944;BME280;32678;43.852;25.952;2024-03-25T23:54:26;100671.13;;;6.93;80.23
46944;BME280;32678;43.852;25.952;2024-03-25T23:59:23;100657.53;;;7.20;79.69
